Time;durP1;ratioP1;P1;durP2;ratioP2;P2;SDS_P1;SDS_P2;PMS_P1;PMS_P2;Temp;Humidity;BMP_temperature;BMP_pressure;BME280_temperature;BME280_humidity;BME280_pressure;Samples;Min_cycle;Max_cycle;Signal;HPM_P1;HPM_P2
2023/01/24 00:01:00;;;;;;;24.17;21.48;;;2.80;99.90;;;;;;4988795;28;20030;-77
2023/01/24 00:03:26;;;;;;;25.05;22.48;;;2.80;99.90;;;;;;5006096;28;20174;-77
2023/01/24 00:05:52;;;;;;;25.98;23.25;;;2.70;99.90;;;;;;5005959;28;20041;-77
2023/01/24 00:08:19;;;;;;;31.05;24.70;;;2.70;99.90;;;;;;5007743;28;20043;-77
2023/01/24 00:10:46;;;;;;;26.70;22.38;;;2.70;99.90;;;;;;5008458;28;20034;-77
2023/01/24 00:13:14;;;;;;;25.08;22.45;;;2.70;99.90;;;;;;5008753;28;20047;-77
2023/01/24 00:15:40;;;;;;;23.13;20.80;;;2.80;99.90;;;;;;4992298;28;20030;-77
2023/01/24 00:18:06;;;;;;;30.38;23.75;;;2.80;99.90;;;;;;5008623;28;20046;-77
2023/01/24 00:20:32;;;;;;;28.25;22.42;;;2.80;99.90;;;;;;5008423;28;20065;-77
2023/01/24 00:22:58;;;;;;;24.83;22.33;;;2.70;99.90;;;;;;5005128;28;20086;-77
2023/01/24 00:25:24;;;;;;;24.05;21.42;;;2.70;99.90;;;;;;4990178;28;20038;-77
2023/01/24 00:27:49;;;;;;;24.33;21.50;;;2.80;99.90;;;;;;4989895;28;20041;-76
2023/01/24 00:30:15;;;;;;;25.35;22.10;;;2.80;99.90;;;;;;5004688;28;20037;-77
2023/01/24 00:32:41;;;;;;;26.15;20.77;;;2.70;99.90;;;;;;5009432;28;20026;-77
2023/01/24 00:35:07;;;;;;;16.45;14.70;;;2.70;99.90;;;;;;5008406;28;20033;-76
2023/01/24 00:37:33;;;;;;;26.05;22.00;;;2.80;99.90;;;;;;5007959;28;20431;-77
2023/01/24 00:39:59;;;;;;;22.42;19.98;;;2.80;99.90;;;;;;5009291;28;20043;-77
2023/01/24 00:42:26;;;;;;;20.95;18.98;;;2.80;99.90;;;;;;4976161;28;20061;-77
2023/01/24 00:44:51;;;;;;;20.48;18.45;;;2.90;99.90;;;;;;5007840;28;20027;-77
2023/01/24 00:47:17;;;;;;;23.70;20.00;;;2.70;99.90;;;;;;5007837;28;20037;-77
2023/01/24 00:49:43;;;;;;;20.42;18.17;;;2.70;99.90;;;;;;5007938;28;20018;-77
2023/01/24 00:52:09;;;;;;;18.95;16.92;;;2.80;99.90;;;;;;5024385;28;20552;-77
2023/01/24 00:54:36;;;;;;;21.42;18.58;;;2.80;99.90;;;;;;4991693;28;20015;-77
2023/01/24 00:57:02;;;;;;;21.00;18.83;;;2.80;99.90;;;;;;5007959;28;20037;-77
2023/01/24 00:59:27;;;;;;;23.35;19.83;;;2.70;99.90;;;;;;5008794;28;20034;-77
2023/01/24 01:01:53;;;;;;;19.33;17.10;;;2.80;99.90;;;;;;5008931;28;20433;-77
2023/01/24 01:04:19;;;;;;;19.42;15.65;;;2.80;99.90;;;;;;5007859;28;20041;-77
2023/01/24 01:06:45;;;;;;;20.55;17.98;;;2.70;99.90;;;;;;5008772;28;20085;-77
2023/01/24 01:09:11;;;;;;;23.83;19.63;;;2.80;99.90;;;;;;4991358;28;20030;-77
2023/01/24 01:11:41;;;;;;;21.95;18.98;;;2.80;99.90;;;;;;5009017;28;20037;-77
2023/01/24 01:14:08;;;;;;;22.20;17.70;;;2.80;99.90;;;;;;5008635;28;20053;-77
2023/01/24 01:16:37;;;;;;;21.45;18.13;;;2.80;99.90;;;;;;5008605;28;20037;-77
2023/01/24 01:19:04;;;;;;;17.95;16.02;;;2.80;99.90;;;;;;5006965;28;20041;-77
2023/01/24 01:21:31;;;;;;;22.33;19.70;;;2.80;99.90;;;;;;5008332;28;20030;-77
2023/01/24 01:23:56;;;;;;;21.17;19.02;;;2.80;99.90;;;;;;5008633;28;20057;-77
2023/01/24 01:26:23;;;;;;;20.05;18.15;;;2.70;99.90;;;;;;5008665;28;20034;-77
2023/01/24 01:28:49;;;;;;;21.42;17.27;;;2.80;99.90;;;;;;5008277;28;20041;-77
2023/01/24 01:31:16;;;;;;;18.38;16.50;;;2.70;99.90;;;;;;5003649;28;20033;-77
2023/01/24 01:33:44;;;;;;;20.95;18.75;;;2.70;99.90;;;;;;5006544;28;20038;-77
2023/01/24 01:36:10;;;;;;;18.27;16.48;;;2.80;99.90;;;;;;5008299;28;20061;-77
2023/01/24 01:38:36;;;;;;;19.52;17.48;;;2.70;99.90;;;;;;5006983;28;20050;-77
2023/01/24 01:41:04;;;;;;;21.75;17.52;;;2.60;99.90;;;;;;5006983;28;20027;-77
2023/01/24 01:43:30;;;;;;;18.50;16.80;;;2.70;99.90;;;;;;5006785;28;20109;-77
2023/01/24 01:46:23;;;;;;;16.67;14.07;;;2.70;99.90;;;;;;5006974;28;20034;-77
2023/01/24 01:48:52;;;;;;;17.70;15.95;;;2.70;99.90;;;;;;5008072;28;20065;-77
2023/01/24 01:51:31;;;;;;;22.03;17.23;;;2.70;99.90;;;;;;5006819;28;20034;-77
2023/01/24 01:54:27;;;;;;;20.50;16.65;;;2.70;99.90;;;;;;5006829;28;20026;-77
2023/01/24 01:56:59;;;;;;;18.92;17.02;;;2.60;99.90;;;;;;5006873;28;20050;-77
2023/01/24 01:59:33;;;;;;;17.30;15.70;;;2.70;99.90;;;;;;5003429;28;20065;-77
2023/01/24 02:02:01;;;;;;;19.27;16.38;;;2.70;99.90;;;;;;4987321;28;20030;-76
2023/01/24 02:04:34;;;;;;;19.00;17.10;;;2.70;99.90;;;;;;4988269;28;20030;-77
2023/01/24 02:07:00;;;;;;;17.38;15.57;;;2.70;99.90;;;;;;5003536;28;20031;-77
2023/01/24 02:09:31;;;;;;;18.27;16.58;;;2.70;99.90;;;;;;4986865;28;20030;-76
2023/01/24 02:12:02;;;;;;;21.58;16.33;;;2.70;99.90;;;;;;4973110;28;20027;-76
2023/01/24 02:17:18;;;;;;;17.35;14.90;;;2.60;99.90;;;;;;5006221;28;20089;-77
2023/01/24 02:20:02;;;;;;;22.50;18.48;;;2.60;99.90;;;;;;5006290;28;20026;-77
2023/01/24 02:22:47;;;;;;;19.55;17.55;;;2.60;99.90;;;;;;5007516;28;20034;-77
2023/01/24 02:25:29;;;;;;;19.67;17.27;;;2.60;99.90;;;;;;5007157;28;20082;-77
2023/01/24 02:27:55;;;;;;;18.08;15.90;;;2.60;99.90;;;;;;5006034;28;20076;-76
2023/01/24 02:30:21;;;;;;;21.00;18.77;;;2.60;99.90;;;;;;5006237;28;20034;-76
2023/01/24 02:32:47;;;;;;;20.02;18.13;;;2.60;99.90;;;;;;5006305;28;20034;-77
2023/01/24 02:35:25;;;;;;;20.13;17.90;;;2.60;99.90;;;;;;5005823;28;20509;-77
2023/01/24 02:37:51;;;;;;;23.23;18.98;;;2.50;99.90;;;;;;5007454;28;20030;-77
2023/01/24 02:40:18;;;;;;;21.52;19.20;;;2.50;99.90;;;;;;5005856;28;20062;-77
2023/01/24 02:42:45;;;;;;;22.63;20.13;;;2.50;99.90;;;;;;5005765;28;20054;-76
2023/01/24 02:45:20;;;;;;;21.42;18.92;;;2.50;99.90;;;;;;5006077;28;20513;-76
2023/01/24 02:47:52;;;;;;;22.42;18.40;;;2.50;99.90;;;;;;5005694;28;20094;-76
2023/01/24 02:50:20;;;;;;;21.70;19.50;;;2.50;99.90;;;;;;4986396;28;20038;-76
2023/01/24 02:55:32;;;;;;;20.52;18.38;;;2.50;99.90;;;;;;4986168;28;20039;-76
2023/01/24 02:58:08;;;;;;;25.75;22.75;;;2.50;99.90;;;;;;5002291;28;20117;-77
2023/01/24 03:00:41;;;;;;;26.02;23.08;;;2.40;99.90;;;;;;4986397;28;20037;-76
2023/01/24 03:03:10;;;;;;;20.63;17.55;;;2.50;99.90;;;;;;4990536;28;20053;-76
2023/01/24 03:05:46;;;;;;;26.33;22.38;;;2.50;99.90;;;;;;4989252;28;20033;-77
2023/01/24 03:08:15;;;;;;;30.40;26.55;;;2.50;99.90;;;;;;5005409;28;20481;-76
2023/01/24 03:10:41;;;;;;;29.85;25.45;;;2.50;99.90;;;;;;5005419;28;20098;-77
2023/01/24 03:35:02;;;;;;;30.10;26.83;;;2.50;99.90;;;;;;5005778;28;20030;-77
2023/01/24 03:40:17;;;;;;;34.17;26.65;;;2.40;99.90;;;;;;5004906;28;20046;-76
2023/01/24 03:42:50;;;;;;;28.60;24.77;;;2.40;99.90;;;;;;5004578;28;20481;-77
2023/01/24 03:45:27;;;;;;;29.92;24.00;;;2.50;99.90;;;;;;5005064;28;20030;-77
2023/01/24 03:48:01;;;;;;;28.25;24.98;;;2.40;99.90;;;;;;5020754;28;20050;-77
2023/01/24 03:53:19;;;;;;;31.83;24.70;;;2.40;99.90;;;;;;5004933;28;20022;-77
2023/01/24 03:55:52;;;;;;;29.67;26.02;;;2.40;99.90;;;;;;5005073;28;20065;-77
2023/01/24 03:58:18;;;;;;;30.52;27.42;;;2.40;99.90;;;;;;5004915;28;20038;-77
2023/01/24 04:00:44;;;;;;;33.75;26.85;;;2.40;99.90;;;;;;5004830;28;20045;-77
2023/01/24 04:03:28;;;;;;;36.88;27.77;;;2.40;99.90;;;;;;4990823;28;20085;-78
2023/01/24 04:05:54;;;;;;;33.03;27.60;;;2.40;99.90;;;;;;5004942;28;20035;-77
2023/01/24 04:08:20;;;;;;;32.17;25.60;;;2.40;99.90;;;;;;4988395;28;20102;-77
2023/01/24 04:10:47;;;;;;;32.50;28.13;;;2.40;99.90;;;;;;5004727;28;20026;-77
2023/01/24 04:13:13;;;;;;;35.17;28.58;;;2.40;99.90;;;;;;5004718;28;20021;-77
2023/01/24 04:15:39;;;;;;;32.20;28.67;;;2.40;99.90;;;;;;5004765;28;20370;-77
2023/01/24 04:18:25;;;;;;;33.13;29.65;;;2.40;99.90;;;;;;5004312;28;20026;-77
2023/01/24 04:20:51;;;;;;;31.17;27.13;;;2.40;99.90;;;;;;5004687;28;20030;-77
2023/01/24 04:23:17;;;;;;;35.10;31.40;;;2.40;99.90;;;;;;5004823;28;20018;-77
2023/01/24 04:25:54;;;;;;;34.20;28.17;;;2.40;99.90;;;;;;5004650;28;20616;-77
2023/01/24 04:28:21;;;;;;;32.67;28.55;;;2.40;99.90;;;;;;5004341;28;20030;-77
2023/01/24 04:30:47;;;;;;;39.28;31.00;;;2.40;99.90;;;;;;5004454;28;20026;-77
2023/01/24 04:33:27;;;;;;;37.53;30.77;;;2.40;99.90;;;;;;5001400;28;20113;-77
2023/01/24 04:35:59;;;;;;;37.75;29.08;;;2.40;99.90;;;;;;4994316;28;20030;-77
2023/01/24 04:38:25;;;;;;;37.85;31.45;;;2.40;99.90;;;;;;5004351;28;20050;-77
2023/01/24 04:41:02;;;;;;;36.10;30.08;;;2.40;99.90;;;;;;4989482;28;20054;-77
2023/01/24 04:43:35;;;;;;;36.45;30.98;;;2.40;99.90;;;;;;5020865;28;20030;-77
2023/01/24 04:46:01;;;;;;;33.95;30.27;;;2.40;99.90;;;;;;5004546;28;20097;-77
2023/01/24 04:48:42;;;;;;;34.33;29.85;;;2.40;99.90;;;;;;4984444;28;20041;-77
2023/01/24 04:51:09;;;;;;;31.63;28.38;;;2.40;99.90;;;;;;4985027;28;20093;-77
2023/01/24 04:53:39;;;;;;;39.15;31.58;;;2.40;99.90;;;;;;4986284;28;20395;-76
2023/01/24 04:56:06;;;;;;;33.88;29.80;;;2.40;99.90;;;;;;5003706;28;20054;-77
2023/01/24 04:58:34;;;;;;;32.72;28.67;;;2.40;99.90;;;;;;4988090;28;20037;-77
2023/01/24 05:01:01;;;;;;;30.20;27.05;;;2.40;99.90;;;;;;4989544;28;20106;-77
2023/01/24 05:03:29;;;;;;;35.83;30.38;;;2.40;99.90;;;;;;5006492;28;20524;-77
2023/01/24 05:05:55;;;;;;;34.85;28.90;;;2.40;99.90;;;;;;5007706;28;20022;-77
2023/01/24 05:08:22;;;;;;;34.22;30.58;;;2.40;99.90;;;;;;5007265;28;20034;-77
2023/01/24 05:10:48;;;;;;;33.95;28.38;;;2.40;99.90;;;;;;5007872;28;20089;-77
2023/01/24 05:13:14;;;;;;;33.90;30.33;;;2.40;99.90;;;;;;5007554;28;20055;-77
2023/01/24 05:15:50;;;;;;;33.47;29.88;;;2.40;99.90;;;;;;4991296;28;20035;-77
2023/01/24 05:18:17;;;;;;;32.83;29.40;;;2.40;99.90;;;;;;5007404;28;20033;-77
2023/01/24 05:20:44;;;;;;;31.60;28.33;;;2.40;99.90;;;;;;5007365;28;20027;-77
2023/01/24 05:23:11;;;;;;;29.88;26.75;;;2.40;99.90;;;;;;5007340;28;20045;-77
2023/01/24 05:25:41;;;;;;;26.90;23.45;;;2.40;99.90;;;;;;5007335;28;20504;-77
2023/01/24 05:28:07;;;;;;;33.05;27.42;;;2.40;99.90;;;;;;5007133;28;20038;-77
2023/01/24 05:30:37;;;;;;;33.92;29.00;;;2.40;99.90;;;;;;5005100;28;20117;-77
2023/01/24 05:33:14;;;;;;;31.75;28.83;;;2.40;99.90;;;;;;5004421;28;20049;-77
2023/01/24 05:35:43;;;;;;;33.35;26.83;;;2.40;99.90;;;;;;4993131;28;20022;-77
2023/01/24 05:38:09;;;;;;;30.20;26.25;;;2.40;99.90;;;;;;4989533;28;20128;-77
2023/01/24 05:40:36;;;;;;;28.83;26.00;;;2.40;99.90;;;;;;4992632;28;20097;-77
2023/01/24 05:43:02;;;;;;;34.72;28.13;;;2.40;99.90;;;;;;5006243;28;20038;-77
2023/01/24 05:45:28;;;;;;;29.70;26.45;;;2.40;99.90;;;;;;5005754;28;20026;-77
2023/01/24 05:47:55;;;;;;;26.90;24.02;;;2.40;99.90;;;;;;4986956;28;20038;-77
2023/01/24 05:50:21;;;;;;;24.38;21.98;;;2.40;99.90;;;;;;5003916;28;20120;-77
2023/01/24 05:53:07;;;;;;;21.58;19.45;;;2.30;99.90;;;;;;5006888;28;20094;-77
2023/01/24 05:55:33;;;;;;;22.10;19.75;;;2.30;99.90;;;;;;5006428;28;20045;-77
2023/01/24 05:58:00;;;;;;;22.02;19.73;;;2.30;99.90;;;;;;5006321;28;20027;-77
2023/01/24 06:00:55;;;;;;;20.65;18.48;;;2.30;99.90;;;;;;5015841;28;20034;-77
2023/01/24 06:03:38;;;;;;;22.50;18.67;;;2.30;99.90;;;;;;5006614;28;20110;-77
2023/01/24 06:06:04;;;;;;;20.45;18.17;;;2.30;99.90;;;;;;5006255;28;20029;-77
2023/01/24 06:08:30;;;;;;;23.55;19.98;;;2.30;99.90;;;;;;5007985;28;20061;-77
2023/01/24 06:11:02;;;;;;;22.05;19.85;;;2.30;99.90;;;;;;4989975;28;20025;-77
2023/01/24 06:13:29;;;;;;;28.08;24.98;;;2.30;99.90;;;;;;5006754;28;20050;-77
2023/01/24 06:16:09;;;;;;;29.95;26.48;;;2.30;99.90;;;;;;5006409;28;20060;-77
2023/01/24 06:18:36;;;;;;;27.73;24.50;;;2.20;99.90;;;;;;5005702;28;20030;-77
2023/01/24 06:21:16;;;;;;;31.95;26.27;;;2.30;99.90;;;;;;5005553;28;20033;-78
2023/01/24 06:23:42;;;;;;;27.50;24.45;;;2.30;99.90;;;;;;5006071;28;20077;-77
2023/01/24 06:26:11;;;;;;;27.58;24.70;;;2.30;99.90;;;;;;5005803;28;20033;-78
2023/01/24 06:28:38;;;;;;;29.30;26.10;;;2.60;99.90;;;;;;4972388;28;20042;-77
2023/01/24 06:31:13;;;;;;;30.05;26.48;;;2.40;99.90;;;;;;5005893;28;20049;-77
2023/01/24 06:34:18;;;;;;;31.92;28.42;;;2.30;99.90;;;;;;4987118;28;20039;-78
2023/01/24 06:37:06;;;;;;;30.67;27.30;;;2.30;99.90;;;;;;4989350;28;20038;-77
2023/01/24 06:39:33;;;;;;;33.60;29.88;;;2.30;99.90;;;;;;4993909;28;20050;-78
2023/01/24 06:41:59;;;;;;;37.22;31.85;;;2.30;99.90;;;;;;5005456;28;20041;-78
2023/01/24 06:44:25;;;;;;;36.25;32.38;;;2.30;99.90;;;;;;5007019;28;20035;-78
2023/01/24 06:46:51;;;;;;;36.63;31.85;;;2.30;99.90;;;;;;5006119;28;20034;-77
2023/01/24 06:49:17;;;;;;;33.15;27.98;;;2.30;99.90;;;;;;5005009;28;20034;-77
2023/01/24 06:51:50;;;;;;;34.55;28.70;;;2.30;99.90;;;;;;5002129;28;20062;-78
2023/01/24 06:54:17;;;;;;;33.97;30.35;;;2.30;99.90;;;;;;5002346;28;20022;-77
2023/01/24 06:56:42;;;;;;;36.97;31.42;;;2.30;99.90;;;;;;4992965;28;20037;-78
2023/01/24 06:59:08;;;;;;;32.17;28.85;;;2.30;99.90;;;;;;5006704;28;20389;-78
2023/01/24 07:01:34;;;;;;;31.58;28.50;;;2.30;99.90;;;;;;5005339;28;20038;-78
2023/01/24 07:04:00;;;;;;;35.60;30.02;;;2.30;99.90;;;;;;5006498;28;20473;-77
2023/01/24 07:06:26;;;;;;;32.90;29.55;;;2.30;99.90;;;;;;4989031;28;20038;-77
2023/01/24 07:08:52;;;;;;;34.25;30.55;;;2.30;99.90;;;;;;5005628;28;20408;-77
2023/01/24 07:11:19;;;;;;;36.05;30.38;;;2.30;99.90;;;;;;5004589;28;20030;-78
2023/01/24 07:13:45;;;;;;;32.30;29.00;;;2.30;99.90;;;;;;5006399;28;20477;-78
2023/01/24 07:16:10;;;;;;;34.75;31.05;;;2.30;99.90;;;;;;5005014;28;20053;-77
2023/01/24 07:18:37;;;;;;;34.10;30.50;;;2.20;99.90;;;;;;5005553;28;20438;-77
2023/01/24 07:21:07;;;;;;;32.28;28.90;;;2.30;99.90;;;;;;5005237;28;20023;-78
2023/01/24 07:23:34;;;;;;;30.65;27.40;;;2.30;99.90;;;;;;5004890;28;20093;-77
2023/01/24 07:26:01;;;;;;;32.30;28.98;;;2.30;99.90;;;;;;5009783;28;20030;-78
2023/01/24 07:28:27;;;;;;;38.42;28.83;;;2.30;99.90;;;;;;5003036;28;20552;-77
2023/01/24 07:30:54;;;;;;;28.58;25.25;;;2.30;99.90;;;;;;5004656;28;20026;-77
2023/01/24 07:33:20;;;;;;;30.48;27.33;;;2.30;99.90;;;;;;5004627;28;20026;-77
2023/01/24 07:35:46;;;;;;;29.27;26.13;;;2.20;99.90;;;;;;5006241;28;20432;-77
2023/01/24 07:38:12;;;;;;;31.92;28.50;;;2.20;99.90;;;;;;4988397;28;20102;-77
2023/01/24 07:40:39;;;;;;;29.70;26.63;;;2.20;99.90;;;;;;5004632;28;20126;-77
2023/01/24 07:43:05;;;;;;;30.25;26.95;;;2.30;99.90;;;;;;5006095;28;20121;-77
2023/01/24 07:45:31;;;;;;;27.83;24.73;;;2.20;99.90;;;;;;5004551;28;20105;-77
2023/01/24 07:47:58;;;;;;;32.58;28.73;;;2.20;99.90;;;;;;4971446;28;20034;-77
2023/01/24 07:50:25;;;;;;;32.58;29.08;;;2.20;99.90;;;;;;5015851;28;20022;-76
2023/01/24 07:52:52;;;;;;;30.85;27.58;;;2.30;99.90;;;;;;5005595;28;20111;-76
2023/01/24 07:55:18;;;;;;;34.42;28.85;;;2.30;99.90;;;;;;5004799;28;20027;-77
2023/01/24 07:57:44;;;;;;;27.80;23.55;;;2.30;99.90;;;;;;5004588;28;20019;-76
2023/01/24 08:00:11;;;;;;;29.45;24.63;;;2.30;99.90;;;;;;5004571;28;20035;-76
2023/01/24 08:02:43;;;;;;;28.25;24.80;;;2.20;99.90;;;;;;5004504;28;20034;-76
2023/01/24 08:05:10;;;;;;;33.00;25.52;;;2.20;99.90;;;;;;5004626;28;20062;-76
2023/01/24 08:07:36;;;;;;;28.20;24.90;;;2.30;99.90;;;;;;5005486;28;20058;-76
2023/01/24 08:10:02;;;;;;;27.25;24.10;;;2.30;99.90;;;;;;5005701;28;20030;-76
2023/01/24 08:12:39;;;;;;;24.33;21.35;;;2.30;99.90;;;;;;5002964;28;20026;-77
2023/01/24 08:15:09;;;;;;;22.75;20.38;;;2.30;99.90;;;;;;5006016;28;20033;-76
2023/01/24 08:17:37;;;;;;;24.25;21.05;;;2.30;99.90;;;;;;5005786;28;20027;-76
2023/01/24 08:20:03;;;;;;;21.65;19.33;;;2.30;99.90;;;;;;5005668;28;20066;-76
2023/01/24 08:22:29;;;;;;;24.40;21.75;;;2.30;99.90;;;;;;5004664;28;20023;-76
2023/01/24 08:24:55;;;;;;;29.27;25.42;;;2.30;99.90;;;;;;5005553;28;20037;-76
2023/01/24 08:27:21;;;;;;;23.60;21.30;;;2.30;99.90;;;;;;5004648;28;20026;-76
2023/01/24 08:29:47;;;;;;;24.92;20.85;;;2.40;99.90;;;;;;5008176;28;20068;-76
2023/01/24 08:32:12;;;;;;;25.15;21.13;;;2.30;99.90;;;;;;5009639;28;20030;-77
2023/01/24 08:34:38;;;;;;;23.88;21.40;;;2.30;99.90;;;;;;5008039;28;20034;-76
2023/01/24 08:37:04;;;;;;;19.42;17.42;;;2.30;99.90;;;;;;5009550;28;20038;-76
2023/01/24 08:39:30;;;;;;;20.95;18.73;;;2.30;99.90;;;;;;5008048;28;20153;-76
2023/01/24 08:41:56;;;;;;;24.77;21.92;;;2.30;99.90;;;;;;5008347;28;20525;-76
2023/01/24 08:44:22;;;;;;;21.00;17.80;;;2.30;99.90;;;;;;4998017;28;20041;-76
2023/01/24 08:46:47;;;;;;;23.45;21.10;;;2.30;99.90;;;;;;4989621;28;20042;-77
2023/01/24 08:49:13;;;;;;;23.00;20.52;;;2.30;99.90;;;;;;4991817;28;20031;-78
2023/01/24 08:51:39;;;;;;;22.25;20.02;;;2.30;99.90;;;;;;4991406;28;20142;-77
2023/01/24 08:54:06;;;;;;;21.75;19.42;;;2.30;99.90;;;;;;5005101;28;20041;-76
2023/01/24 08:56:32;;;;;;;23.95;20.95;;;2.30;99.90;;;;;;5008021;28;20030;-76
2023/01/24 08:58:57;;;;;;;23.60;21.08;;;2.30;99.90;;;;;;5009110;28;20119;-75
2023/01/24 09:01:25;;;;;;;23.25;20.70;;;2.40;99.90;;;;;;5008384;28;20036;-76
2023/01/24 09:03:51;;;;;;;23.33;20.77;;;2.30;99.90;;;;;;5007788;28;20593;-76
2023/01/24 09:06:17;;;;;;;25.73;22.92;;;2.30;99.90;;;;;;5007407;28;20030;-74
2023/01/24 09:08:43;;;;;;;26.42;23.20;;;2.40;99.90;;;;;;4998244;28;20098;-76
2023/01/24 09:11:09;;;;;;;25.23;22.63;;;2.40;99.90;;;;;;4988047;28;20027;-75
2023/01/24 09:13:34;;;;;;;25.95;23.35;;;2.40;99.90;;;;;;4974365;28;20035;-78
2023/01/24 09:16:00;;;;;;;29.38;23.30;;;2.40;99.90;;;;;;4989715;28;20031;-77
2023/01/24 09:18:26;;;;;;;24.92;21.52;;;2.40;99.90;;;;;;4988010;28;20035;-78
2023/01/24 09:20:52;;;;;;;25.33;21.02;;;2.40;99.90;;;;;;4990437;28;20097;-77
2023/01/24 09:23:17;;;;;;;24.95;22.25;;;2.40;99.90;;;;;;5000627;28;20034;-77
2023/01/24 09:25:51;;;;;;;26.95;24.23;;;2.50;99.90;;;;;;4981843;28;20043;-77
2023/01/24 09:28:19;;;;;;;26.40;23.65;;;2.40;99.90;;;;;;4988817;28;20035;-77
2023/01/24 09:30:49;;;;;;;26.83;24.00;;;2.40;99.90;;;;;;5006216;28;20030;-78
2023/01/24 09:33:17;;;;;;;28.73;25.33;;;2.50;99.90;;;;;;5008480;28;20027;-77
2023/01/24 09:35:51;;;;;;;27.63;23.80;;;2.50;99.90;;;;;;5008931;28;20034;-77
2023/01/24 09:38:17;;;;;;;30.17;26.23;;;2.40;99.90;;;;;;5006304;28;20054;-78
2023/01/24 09:40:48;;;;;;;30.98;26.85;;;2.40;99.90;;;;;;4990594;28;20039;-77
2023/01/24 09:43:39;;;;;;;28.85;25.77;;;2.50;99.90;;;;;;4995294;28;20038;-77
2023/01/24 09:46:40;;;;;;;28.42;23.55;;;2.60;99.90;;;;;;5007220;28;20389;-77
2023/01/24 09:49:30;;;;;;;27.20;24.45;;;2.60;99.90;;;;;;5005795;28;20077;-77
2023/01/24 09:51:55;;;;;;;29.90;25.88;;;2.80;99.90;;;;;;5008140;28;20022;-77
2023/01/24 09:54:43;;;;;;;23.33;20.10;;;2.70;99.90;;;;;;4985133;28;20031;-77
2023/01/24 09:57:23;;;;;;;31.35;25.90;;;2.70;99.90;;;;;;5004681;28;20026;-77
2023/01/24 09:59:52;;;;;;;29.42;25.10;;;3.30;99.90;;;;;;5008112;28;20053;-77
2023/01/24 10:02:20;;;;;;;24.88;21.77;;;2.80;99.90;;;;;;5006680;28;20065;-78
2023/01/24 10:04:48;;;;;;;24.75;22.40;;;2.80;99.90;;;;;;5006782;28;20157;-77
2023/01/24 10:07:23;;;;;;;29.05;25.88;;;2.80;99.90;;;;;;4996043;28;20487;-78
2023/01/24 10:10:20;;;;;;;25.00;22.17;;;2.80;99.90;;;;;;4988281;28;20038;-77
2023/01/24 10:13:16;;;;;;;27.95;22.95;;;2.80;99.90;;;;;;5002265;28;20401;-77
2023/01/24 10:15:56;;;;;;;33.22;27.80;;;2.80;99.90;;;;;;5003457;28;20037;-77
2023/01/24 10:18:27;;;;;;;33.00;26.98;;;2.80;99.90;;;;;;4986828;28;20061;-78
2023/01/24 10:21:24;;;;;;;29.58;24.45;;;2.80;99.90;;;;;;4986867;28;20106;-78
2023/01/24 10:24:07;;;;;;;28.88;25.80;;;2.70;99.90;;;;;;5003809;28;20564;-77
2023/01/24 10:26:59;;;;;;;25.02;22.42;;;2.70;99.90;;;;;;4993760;28;20035;-78
2023/01/24 10:29:30;;;;;;;25.02;22.40;;;2.90;99.90;;;;;;4992730;28;20043;-78
2023/01/24 10:32:20;;;;;;;28.83;24.70;;;2.90;99.90;;;;;;5006960;28;20038;-78
2023/01/24 10:35:10;;;;;;;27.73;24.52;;;3.00;99.90;;;;;;5007154;28;20046;-78
2023/01/24 10:37:41;;;;;;;27.58;23.02;;;3.10;99.90;;;;;;4987758;28;20049;-78
2023/01/24 10:40:15;;;;;;;24.75;22.05;;;3.20;99.90;;;;;;5002633;28;20105;-78
2023/01/24 10:42:42;;;;;;;28.98;25.83;;;3.20;99.90;;;;;;5002731;28;20046;-78
2023/01/24 10:45:32;;;;;;;29.65;24.08;;;3.20;99.90;;;;;;4986696;28;20086;-78
2023/01/24 10:48:23;;;;;;;26.02;22.23;;;3.20;99.90;;;;;;4991110;28;20037;-78
2023/01/24 10:50:49;;;;;;;34.22;28.70;;;3.20;99.90;;;;;;5006807;28;20026;-78
2023/01/24 10:53:26;;;;;;;36.72;29.73;;;3.40;99.90;;;;;;5006076;28;20572;-78
2023/01/24 10:56:01;;;;;;;31.98;28.70;;;3.20;99.90;;;;;;5005752;28;20026;-80
2023/01/24 10:58:32;;;;;;;30.17;27.15;;;3.20;99.90;;;;;;5004840;28;20038;-79
2023/01/24 11:01:03;;;;;;;35.20;31.42;;;3.20;99.90;;;;;;4986207;28;20035;-77
2023/01/24 11:03:34;;;;;;;39.90;33.33;;;3.10;99.90;;;;;;4987284;28;20035;-77
2023/01/24 11:06:01;;;;;;;33.22;29.65;;;3.00;99.90;;;;;;4985862;28;20038;-78
2023/01/24 11:08:34;;;;;;;36.97;32.30;;;3.00;99.90;;;;;;4987322;28;20031;-77
2023/01/24 11:11:00;;;;;;;27.70;24.90;;;2.90;99.90;;;;;;4985743;28;20044;-77
2023/01/24 11:13:38;;;;;;;33.30;28.42;;;3.10;99.90;;;;;;4985818;28;20110;-77
2023/01/24 11:16:26;;;;;;;34.95;25.10;;;3.20;99.90;;;;;;5002354;28;20429;-77
2023/01/24 11:19:01;;;;;;;28.50;25.77;;;3.30;99.90;;;;;;5001608;28;20124;-77
2023/01/24 11:21:28;;;;;;;26.15;22.38;;;3.20;99.90;;;;;;4994789;28;20062;-77
2023/01/24 11:24:07;;;;;;;26.27;20.30;;;3.30;99.90;;;;;;5004427;28;20046;-77
2023/01/24 11:26:38;;;;;;;35.80;25.42;;;3.00;99.90;;;;;;4994373;28;20030;-77
2023/01/24 11:29:19;;;;;;;26.60;23.80;;;3.20;99.90;;;;;;5000542;28;20034;-77
2023/01/24 11:32:11;;;;;;;27.33;24.50;;;3.20;99.90;;;;;;5001078;28;20435;-77
2023/01/24 11:34:49;;;;;;;29.05;25.95;;;3.20;99.90;;;;;;4999836;28;20434;-77
2023/01/24 11:37:36;;;;;;;27.48;24.60;;;3.20;99.90;;;;;;4993880;28;20022;-77
2023/01/24 11:40:05;;;;;;;28.90;24.88;;;3.30;99.90;;;;;;5004440;28;20109;-77
2023/01/24 11:42:53;;;;;;;30.55;26.15;;;3.30;99.90;;;;;;5004752;28;20113;-77
2023/01/24 11:45:45;;;;;;;27.52;24.65;;;3.30;99.90;;;;;;5004410;28;20041;-79
2023/01/24 11:48:21;;;;;;;25.65;22.95;;;3.30;99.90;;;;;;5005566;28;20038;-77
2023/01/24 11:51:04;;;;;;;30.02;24.52;;;3.30;99.90;;;;;;4985645;28;20033;-77
2023/01/24 11:53:42;;;;;;;29.83;26.92;;;3.20;99.90;;;;;;5000992;28;20536;-77
2023/01/24 11:56:28;;;;;;;31.50;28.17;;;3.30;99.90;;;;;;5004843;28;20034;-77
2023/01/24 11:59:15;;;;;;;33.08;29.75;;;3.30;99.90;;;;;;5005716;28;20045;-77
2023/01/24 12:02:09;;;;;;;30.80;27.15;;;3.30;99.90;;;;;;5004362;28;20030;-78
2023/01/24 12:04:53;;;;;;;31.67;28.58;;;3.20;99.90;;;;;;5007975;28;20038;-79
2023/01/24 12:07:46;;;;;;;33.22;27.48;;;3.20;99.90;;;;;;5009350;28;20022;-79
2023/01/24 12:10:30;;;;;;;32.85;29.38;;;3.30;99.90;;;;;;5010970;28;20042;-79
2023/01/24 12:13:14;;;;;;;33.83;30.15;;;3.30;99.90;;;;;;4990048;28;20102;-78
2023/01/24 12:16:12;;;;;;;31.27;27.98;;;3.30;99.90;;;;;;5002743;28;20122;-79
2023/01/24 12:18:50;;;;;;;34.35;30.92;;;3.30;99.90;;;;;;5008251;28;20030;-77
2023/01/24 12:21:16;;;;;;;34.70;30.77;;;3.40;99.90;;;;;;5009116;28;20040;-77
2023/01/24 12:24:02;;;;;;;36.67;31.85;;;3.30;99.90;;;;;;5007650;28;20053;-76
2023/01/24 12:26:32;;;;;;;34.30;30.17;;;3.30;99.90;;;;;;4993781;28;20089;-77
2023/01/24 12:29:18;;;;;;;33.97;30.33;;;3.30;99.90;;;;;;5009381;28;20057;-77
2023/01/24 12:31:52;;;;;;;31.85;28.25;;;3.40;99.90;;;;;;5008245;28;20084;-77
2023/01/24 12:34:53;;;;;;;37.65;31.77;;;3.40;99.90;;;;;;5009276;28;20026;-78
2023/01/24 12:37:32;;;;;;;36.45;32.58;;;3.40;99.90;;;;;;5010858;28;20101;-79
2023/01/24 12:40:03;;;;;;;32.13;28.67;;;3.30;99.90;;;;;;5008680;28;20054;-78
2023/01/24 12:43:17;;;;;;;32.67;27.98;;;3.30;99.90;;;;;;5007369;28;20038;-79
2023/01/24 12:45:46;;;;;;;37.85;27.95;;;3.30;99.90;;;;;;5016635;28;20439;-78
2023/01/24 12:48:17;;;;;;;38.13;31.70;;;3.40;99.90;;;;;;5005723;28;20042;-77
2023/01/24 12:50:59;;;;;;;38.45;34.35;;;3.30;99.90;;;;;;5008671;28;20058;-77
2023/01/24 12:53:32;;;;;;;34.10;29.77;;;3.40;99.90;;;;;;5008193;28;20076;-79
2023/01/24 12:56:08;;;;;;;34.63;29.33;;;3.40;99.90;;;;;;5007635;28;20057;-77
2023/01/24 12:58:45;;;;;;;34.15;30.00;;;3.40;99.90;;;;;;5007541;28;20057;-77
2023/01/24 13:01:26;;;;;;;36.40;32.58;;;3.30;99.90;;;;;;5007750;28;20030;-77
2023/01/24 13:04:12;;;;;;;31.70;28.38;;;3.40;99.90;;;;;;5023810;28;20040;-77
2023/01/24 13:06:58;;;;;;;37.65;29.92;;;3.50;99.90;;;;;;5008763;28;20031;-77
2023/01/24 13:09:47;;;;;;;36.58;30.92;;;3.50;99.90;;;;;;5007228;28;20031;-77
2023/01/24 13:12:23;;;;;;;33.05;29.48;;;3.50;99.90;;;;;;5023902;28;20034;-77
2023/01/24 13:14:51;;;;;;;34.00;30.35;;;3.50;99.90;;;;;;5008185;28;20446;-77
2023/01/24 13:17:22;;;;;;;33.45;29.75;;;3.50;99.90;;;;;;5006573;28;20054;-77
2023/01/24 13:20:17;;;;;;;35.53;27.88;;;3.50;99.90;;;;;;5007357;28;20088;-77
2023/01/24 13:22:49;;;;;;;35.50;31.80;;;3.50;99.90;;;;;;5006823;28;20094;-77
2023/01/24 13:25:43;;;;;;;34.95;28.40;;;3.50;99.90;;;;;;5005822;28;20053;-77
2023/01/24 13:28:46;;;;;;;33.28;27.98;;;3.40;99.90;;;;;;5008068;28;20026;-77
2023/01/24 13:31:34;;;;;;;38.25;31.95;;;3.50;99.90;;;;;;5008063;28;20050;-77
2023/01/24 13:34:13;;;;;;;31.00;27.88;;;3.50;99.90;;;;;;5008284;28;20509;-77